Cape York — VRXE9 — position and weather

sailwx.info

Track history (hours):
 
Tides and Currents Weather Stations Pressure Air Temp Water Temp Dewpoint Dewpoint Depression Visibility Wind Speed Wind Dir Waves Ship Positions

Cape York

Last reported at 2017-Dec-08 14:41 UTC. Time now 2018-Jan-18 12:17 UTC.
Position N 16°22' W 062°01'.
Warning: this ship's position is 40 days out of date.

Length 170 m; draft 7.6 m.

Type: Cargo ship. MMSI: 477924000.

Date/timePositionNaut miles runAvg speedWind from/ knotsBaromVisibWave heightAir tempDewpointWater temp
2017-Dec-08 14:41N 16°22' W 062°01'313.8
2017-Dec-08 14:31N 16°24' W 061°60'713.8
2017-Dec-08 14:01N 16°29' W 061°54'713.8
2017-Dec-08 13:30N 16°33' W 061°49'713.5
2017-Dec-08 13:00N 16°38' W 061°44'713.5
2017-Dec-08 12:30N 16°43' W 061°39'713.6
2017-Dec-08 12:00N 16°48' W 061°34'713.8
2017-Dec-08 11:31N 16°53' W 061°29'713.4
2017-Dec-08 11:01N 16°58' W 061°25'713.3
2017-Dec-08 10:31N 17°03' W 061°20'713.2
2017-Dec-08 10:00N 17°08' W 061°16'713.1
2017-Dec-08 09:30N 17°13' W 061°11'613.1
2017-Dec-08 09:00N 17°18' W 061°07'  
Track history (hours):
 
Tides and Currents Weather Stations Pressure Air Temp Water Temp Dewpoint Dewpoint Depression Visibility Wind Speed Wind Dir Waves Ship Positions

Cape York

Last reported at 2017-Dec-08 14:41 UTC. Time now 2018-Jan-18 12:17 UTC.
Position N 16°22' W 062°01'.
Warning: this ship's position is 40 days out of date.

Length 170 m; draft 7.6 m.

Type: Cargo ship. MMSI: 477924000.

Date/timePositionNaut miles runAvg speedWind from/ knotsBaromVisibWave heightAir tempDewpointWater temp
2017-Dec-08 14:41N 16°22' W 062°01'313.8
2017-Dec-08 14:31N 16°24' W 061°60'713.8
2017-Dec-08 14:01N 16°29' W 061°54'713.8
2017-Dec-08 13:30N 16°33' W 061°49'713.5
2017-Dec-08 13:00N 16°38' W 061°44'713.5
2017-Dec-08 12:30N 16°43' W 061°39'713.6
2017-Dec-08 12:00N 16°48' W 061°34'713.8
2017-Dec-08 11:31N 16°53' W 061°29'713.4
2017-Dec-08 11:01N 16°58' W 061°25'713.3
2017-Dec-08 10:31N 17°03' W 061°20'713.2
2017-Dec-08 10:00N 17°08' W 061°16'713.1
2017-Dec-08 09:30N 17°13' W 061°11'613.1
2017-Dec-08 09:00N 17°18' W 061°07'  

Dump ship's entire track history